createdAt,value
2018-09-25T00:01:24.191Z,7.70
2018-09-25T00:03:57.768Z,7.70
2018-09-25T00:06:31.358Z,7.60
2018-09-25T00:09:04.950Z,7.70
2018-09-25T00:11:38.652Z,7.70
2018-09-25T00:14:12.171Z,7.70
2018-09-25T00:16:45.629Z,7.70
2018-09-25T00:19:19.108Z,7.60
2018-09-25T00:21:52.663Z,7.60
2018-09-25T00:24:26.335Z,7.60
2018-09-25T00:26:59.943Z,7.50
2018-09-25T00:29:33.359Z,7.40
2018-09-25T00:32:06.853Z,7.30
2018-09-25T00:34:40.313Z,7.20
2018-09-25T00:37:13.928Z,7.20
2018-09-25T00:39:47.424Z,7.10
2018-09-25T00:42:20.881Z,7.10
2018-09-25T00:44:54.404Z,7.20
2018-09-25T00:47:28.011Z,7.20
2018-09-25T00:50:01.604Z,7.20
2018-09-25T00:52:34.968Z,7.20
2018-09-25T00:55:08.591Z,7.10
2018-09-25T00:57:42.117Z,7.00
2018-09-25T01:00:15.571Z,7.00
2018-09-25T01:02:49.236Z,6.90
2018-09-25T01:05:22.804Z,6.90
2018-09-25T01:07:56.360Z,7.00
2018-09-25T01:10:29.905Z,7.00
2018-09-25T01:13:03.359Z,7.00
2018-09-25T01:15:36.959Z,7.00
2018-09-25T01:18:10.486Z,7.00
2018-09-25T01:20:44.096Z,7.10
2018-09-25T01:23:17.671Z,7.20
2018-09-25T01:25:51.238Z,7.30
2018-09-25T01:28:24.810Z,7.40
2018-09-25T01:30:58.402Z,7.40
2018-09-25T01:33:31.832Z,7.50
2018-09-25T01:36:05.462Z,7.60
2018-09-25T01:38:39.099Z,7.70
2018-09-25T01:41:13.046Z,7.70
2018-09-25T01:43:46.523Z,7.70
2018-09-25T01:46:20.000Z,7.70
2018-09-25T01:48:53.553Z,7.70
2018-09-25T01:51:27.161Z,7.60
2018-09-25T01:54:00.683Z,7.60
2018-09-25T01:56:34.232Z,7.60
2018-09-25T01:59:07.865Z,7.60
2018-09-25T02:01:41.479Z,7.60
2018-09-25T02:04:15.092Z,7.50
2018-09-25T02:06:48.482Z,7.50
2018-09-25T02:09:22.125Z,7.40
2018-09-25T02:11:55.590Z,7.40
2018-09-25T02:14:29.226Z,7.40
2018-09-25T02:17:02.780Z,7.40
2018-09-25T02:19:36.363Z,7.40
2018-09-25T02:22:09.982Z,7.40
2018-09-25T02:24:43.315Z,7.30
2018-09-25T02:27:16.843Z,7.30
2018-09-25T02:29:50.504Z,7.30
2018-09-25T02:32:23.948Z,7.40
2018-09-25T02:34:57.596Z,7.50
2018-09-25T02:37:31.223Z,7.50
2018-09-25T02:40:04.797Z,7.60
2018-09-25T02:42:38.411Z,7.60
2018-09-25T02:45:11.899Z,7.70
2018-09-25T02:47:45.381Z,7.70
2018-09-25T02:50:18.939Z,7.70
2018-09-25T02:52:52.609Z,7.60
2018-09-25T02:55:26.299Z,7.60
2018-09-25T02:57:59.904Z,7.60
2018-09-25T03:00:33.500Z,7.50
2018-09-25T03:03:07.117Z,7.60
2018-09-25T03:05:40.813Z,7.60
2018-09-25T03:08:14.468Z,7.60
2018-09-25T03:10:48.041Z,7.60
2018-09-25T03:13:21.616Z,7.60
2018-09-25T03:15:55.123Z,7.60
2018-09-25T03:18:28.720Z,7.70
2018-09-25T03:21:02.230Z,7.70
2018-09-25T03:23:35.651Z,7.70
2018-09-25T03:26:09.270Z,7.70
2018-09-25T03:28:42.648Z,7.60
2018-09-25T03:31:16.308Z,7.50
2018-09-25T03:33:49.991Z,7.40
2018-09-25T03:36:23.400Z,7.30
2018-09-25T03:38:56.879Z,7.20
2018-09-25T03:41:30.315Z,7.10
2018-09-25T03:44:03.988Z,7.00
2018-09-25T03:46:37.501Z,6.90
2018-09-25T03:49:11.094Z,6.80
2018-09-25T03:51:44.683Z,6.70
2018-09-25T03:54:18.403Z,6.60
2018-09-25T03:56:52.070Z,6.50
2018-09-25T03:59:25.741Z,6.40
2018-09-25T04:01:59.278Z,6.40
2018-09-25T04:04:32.937Z,6.40
2018-09-25T04:07:06.556Z,6.40
2018-09-25T04:09:40.061Z,6.40
2018-09-25T04:12:13.679Z,6.40
2018-09-25T04:14:47.297Z,6.50
2018-09-25T04:17:20.923Z,6.50
2018-09-25T04:19:54.432Z,6.50
2018-09-25T04:22:28.095Z,6.60
2018-09-25T04:25:01.511Z,6.60
2018-09-25T04:27:34.967Z,6.60
2018-09-25T04:30:08.478Z,6.70
2018-09-25T04:32:41.880Z,6.60
2018-09-25T04:35:15.462Z,6.60
2018-09-25T04:37:48.913Z,6.60
2018-09-25T04:40:22.460Z,6.60
2018-09-25T04:42:56.082Z,6.50
2018-09-25T04:45:29.592Z,6.50
2018-09-25T04:51:07.775Z,6.50
2018-09-25T04:53:41.255Z,6.50
2018-09-25T04:56:14.772Z,6.40
2018-09-25T04:58:48.201Z,6.30
2018-09-25T05:01:21.925Z,6.20
2018-09-25T05:03:55.579Z,6.20
2018-09-25T05:06:29.216Z,6.10
2018-09-25T05:09:02.845Z,6.10
2018-09-25T05:11:36.491Z,6.00
2018-09-25T05:14:09.891Z,6.00
2018-09-25T05:16:43.367Z,6.10
2018-09-25T05:19:17.070Z,6.10
2018-09-25T05:21:50.563Z,6.20
2018-09-25T05:24:24.282Z,6.30
2018-09-25T05:26:57.886Z,6.50
2018-09-25T05:29:31.252Z,6.80
2018-09-25T05:32:04.875Z,7.20
2018-09-25T05:34:38.532Z,7.60
2018-09-25T05:37:11.971Z,8.20
2018-09-25T05:39:45.580Z,8.60
2018-09-25T05:42:19.046Z,8.60
2018-09-25T05:44:52.660Z,8.60
2018-09-25T05:47:33.136Z,8.60
2018-09-25T05:50:06.665Z,8.70
2018-09-25T05:52:40.169Z,8.80
2018-09-25T05:55:13.614Z,9.00
2018-09-25T05:57:47.083Z,9.20
2018-09-25T06:00:20.609Z,9.40
2018-09-25T06:02:54.249Z,9.60
2018-09-25T06:05:28.019Z,9.80
2018-09-25T06:08:01.555Z,9.90
2018-09-25T06:10:35.246Z,10.10
2018-09-25T06:13:08.973Z,10.20
2018-09-25T06:15:42.562Z,10.30
2018-09-25T06:18:16.052Z,10.30
2018-09-25T06:20:49.733Z,10.40
2018-09-25T06:23:23.345Z,10.50
2018-09-25T06:25:56.955Z,10.60
2018-09-25T06:28:30.657Z,10.90
2018-09-25T06:31:04.293Z,11.20
2018-09-25T06:33:37.975Z,11.60
2018-09-25T06:36:11.645Z,12.00
2018-09-25T06:38:45.286Z,12.30
2018-09-25T06:41:18.847Z,12.70
2018-09-25T06:43:52.349Z,12.80
2018-09-25T06:46:25.775Z,13.20
2018-09-25T06:48:59.247Z,13.40
2018-09-25T06:51:32.757Z,13.70
2018-09-25T06:54:06.376Z,14.20
2018-09-25T06:56:39.825Z,14.50
2018-09-25T06:59:13.560Z,14.70
2018-09-25T07:01:47.252Z,14.90
2018-09-25T07:04:20.686Z,15.00
2018-09-25T07:06:54.347Z,15.20
2018-09-25T07:09:27.969Z,15.30
2018-09-25T07:12:01.575Z,15.30
2018-09-25T07:14:35.057Z,15.60
2018-09-25T07:17:08.675Z,15.90
2018-09-25T07:19:42.312Z,16.30
2018-09-25T07:22:15.884Z,16.40
2018-09-25T07:24:49.581Z,16.60
2018-09-25T07:27:23.105Z,16.90
2018-09-25T07:29:56.566Z,16.90
2018-09-25T07:32:30.013Z,17.00
2018-09-25T07:35:03.498Z,17.10
2018-09-25T07:37:36.963Z,17.30
2018-09-25T07:40:10.535Z,17.50
2018-09-25T07:42:44.025Z,17.40
2018-09-25T07:45:17.510Z,17.00
2018-09-25T07:47:51.157Z,16.60
2018-09-25T07:50:24.864Z,16.30
2018-09-25T07:52:58.632Z,15.80
2018-09-25T07:55:32.148Z,15.80
2018-09-25T07:58:05.636Z,15.80
2018-09-25T08:00:39.121Z,15.80
2018-09-25T08:03:12.885Z,15.70
2018-09-25T08:05:46.522Z,15.40
2018-09-25T08:08:20.140Z,14.90
2018-09-25T08:10:54.347Z,14.50
2018-09-25T08:13:27.975Z,14.20
2018-09-25T08:16:01.542Z,13.90
2018-09-25T08:18:35.254Z,13.80
2018-09-25T08:21:08.864Z,14.10
2018-09-25T08:23:42.412Z,14.70
2018-09-25T08:26:15.804Z,15.50
2018-09-25T08:28:49.463Z,16.20
2018-09-25T08:31:23.080Z,16.60
2018-09-25T08:33:56.582Z,16.90
2018-09-25T08:36:29.999Z,17.30
2018-09-25T08:39:03.749Z,17.60
2018-09-25T08:41:37.161Z,17.70
2018-09-25T08:44:10.640Z,17.70
2018-09-25T08:46:44.055Z,18.00
2018-09-25T08:49:17.670Z,18.40
2018-09-25T08:51:51.152Z,18.70
2018-09-25T08:54:24.848Z,18.70
2018-09-25T08:56:58.151Z,18.90
2018-09-25T08:59:31.725Z,19.10
2018-09-25T09:02:05.229Z,19.10
2018-09-25T09:04:38.755Z,19.00
2018-09-25T09:13:05.039Z,17.30
2018-09-25T09:15:38.683Z,17.50
2018-09-25T09:18:12.263Z,17.50
2018-09-25T09:20:45.818Z,17.70
2018-09-25T09:26:22.778Z,18.50
2018-09-25T09:28:56.372Z,19.10
2018-09-25T09:31:29.799Z,19.30
2018-09-25T09:34:03.394Z,19.50
2018-09-25T09:36:36.954Z,19.60
2018-09-25T09:39:13.246Z,19.60
2018-09-25T09:41:47.052Z,19.80
2018-09-25T09:44:20.539Z,19.80
2018-09-25T09:46:53.970Z,19.90
2018-09-25T09:49:27.515Z,20.00
2018-09-25T09:52:00.980Z,20.10
2018-09-25T09:54:34.519Z,20.00
2018-09-25T09:57:08.027Z,19.90
2018-09-25T09:59:41.575Z,20.20
2018-09-25T10:02:15.215Z,20.40
2018-09-25T10:04:48.617Z,19.90
2018-09-25T10:07:22.120Z,19.50
2018-09-25T10:09:55.692Z,19.20
2018-09-25T10:12:29.244Z,18.90
2018-09-25T10:15:02.649Z,18.70
2018-09-25T10:17:36.299Z,18.80
2018-09-25T10:20:09.848Z,19.20
2018-09-25T10:22:43.514Z,19.40
2018-09-25T10:25:16.907Z,19.80
2018-09-25T10:27:50.361Z,19.90
2018-09-25T10:30:23.683Z,19.60
2018-09-25T10:32:57.347Z,19.30
2018-09-25T10:35:30.663Z,18.80
2018-09-25T10:38:04.275Z,18.30
2018-09-25T10:40:37.828Z,18.30
2018-09-25T10:43:11.455Z,18.30
2018-09-25T10:45:44.974Z,18.10
2018-09-25T10:48:18.588Z,18.00
2018-09-25T10:50:52.295Z,18.10
2018-09-25T10:53:25.746Z,17.90
2018-09-25T10:55:59.432Z,17.60
2018-09-25T10:58:32.876Z,17.30
2018-09-25T11:01:06.349Z,17.30
2018-09-25T11:03:39.967Z,17.00
2018-09-25T11:06:13.407Z,16.60
2018-09-25T11:08:47.689Z,16.90
2018-09-25T11:11:21.054Z,17.10
2018-09-25T11:13:54.519Z,17.10
2018-09-25T11:16:28.159Z,17.10
2018-09-25T11:19:01.495Z,16.70
2018-09-25T11:21:35.198Z,16.50
2018-09-25T11:24:08.652Z,16.40
2018-09-25T11:26:42.052Z,16.30
2018-09-25T11:29:40.048Z,15.90
2018-09-25T11:32:14.255Z,15.60
2018-09-25T11:34:48.498Z,15.40
2018-09-25T11:37:22.573Z,15.40
2018-09-25T11:39:56.606Z,15.20
2018-09-25T11:42:30.688Z,15.10
2018-09-25T11:45:04.819Z,15.00
2018-09-25T11:47:39.016Z,15.00
2018-09-25T11:50:13.171Z,14.80
2018-09-25T11:52:47.407Z,14.90
2018-09-25T11:55:21.642Z,15.00
2018-09-25T11:57:55.908Z,15.00
2018-09-25T12:00:30.003Z,15.00
2018-09-25T12:03:04.215Z,14.90
2018-09-25T12:05:38.460Z,14.90
2018-09-25T12:08:12.395Z,15.00
2018-09-25T12:10:46.495Z,15.00
2018-09-25T12:13:20.718Z,15.10
2018-09-25T12:15:54.795Z,15.20
2018-09-25T12:18:28.951Z,15.20
2018-09-25T12:21:03.228Z,15.40
2018-09-25T12:23:37.402Z,15.60
2018-09-25T12:26:11.778Z,15.80
2018-09-25T12:28:46.038Z,15.80
2018-09-25T12:31:20.247Z,15.70
2018-09-25T12:33:54.484Z,15.60
2018-09-25T12:36:28.601Z,15.60
2018-09-25T12:39:02.703Z,15.60
2018-09-25T12:41:36.895Z,15.70
2018-09-25T12:44:11.083Z,15.80
2018-09-25T12:46:45.283Z,15.90
2018-09-25T12:49:19.486Z,15.80
2018-09-25T12:51:53.711Z,15.80
2018-09-25T12:54:27.800Z,15.80
2018-09-25T12:57:02.048Z,15.80
2018-09-25T12:59:36.098Z,15.70
2018-09-25T13:02:10.346Z,15.50
2018-09-25T13:04:44.409Z,15.40
2018-09-25T13:07:18.456Z,15.20
2018-09-25T13:09:52.567Z,15.10
2018-09-25T13:12:26.655Z,15.10
2018-09-25T13:15:00.660Z,15.10
2018-09-25T13:17:34.616Z,15.30
2018-09-25T13:20:08.670Z,15.40
2018-09-25T13:22:42.768Z,15.30
2018-09-25T13:25:16.934Z,15.20
2018-09-25T13:27:50.967Z,14.90
2018-09-25T13:30:25.035Z,14.70
2018-09-25T13:32:59.246Z,14.50
2018-09-25T13:35:33.499Z,14.50
2018-09-25T13:38:07.706Z,14.50
2018-09-25T13:40:41.933Z,14.60
2018-09-25T13:43:16.013Z,14.60
2018-09-25T13:45:50.183Z,14.60
2018-09-25T13:48:24.389Z,14.50
2018-09-25T13:50:58.431Z,14.50
2018-09-25T13:53:32.523Z,14.50
2018-09-25T13:56:06.755Z,14.60
2018-09-25T13:58:40.923Z,14.60
2018-09-25T14:01:15.033Z,14.60
2018-09-25T14:03:49.079Z,14.60
2018-09-25T14:06:23.339Z,14.50
2018-09-25T14:08:57.583Z,14.50
2018-09-25T14:11:31.632Z,14.40
2018-09-25T14:14:05.839Z,14.50
2018-09-25T14:16:39.915Z,14.30
2018-09-25T14:19:14.147Z,14.20
2018-09-25T14:21:48.421Z,14.20
2018-09-25T14:24:22.523Z,14.40
2018-09-25T14:26:56.647Z,14.50
2018-09-25T14:29:30.611Z,14.50
2018-09-25T14:32:04.787Z,14.60
2018-09-25T14:34:39.045Z,14.70
2018-09-25T14:37:13.188Z,14.70
2018-09-25T14:39:47.308Z,14.80
2018-09-25T14:42:21.484Z,14.80
2018-09-25T14:44:55.715Z,14.80
2018-09-25T14:47:29.936Z,14.80
2018-09-25T14:50:04.214Z,14.80
2018-09-25T14:52:38.528Z,14.60
2018-09-25T14:55:12.539Z,14.50
2018-09-25T14:57:46.740Z,14.30
2018-09-25T15:00:20.847Z,14.20
2018-09-25T15:02:54.863Z,14.00
2018-09-25T15:05:29.135Z,14.00
2018-09-25T15:08:03.223Z,13.90
2018-09-25T15:10:37.473Z,13.80
2018-09-25T15:13:11.671Z,13.80
2018-09-25T15:15:45.807Z,13.80
2018-09-25T15:18:20.035Z,13.80
2018-09-25T15:20:54.162Z,13.70
2018-09-25T15:23:28.330Z,13.60
2018-09-25T15:26:02.416Z,13.50
2018-09-25T15:28:36.564Z,13.50
2018-09-25T15:31:11.042Z,13.40
2018-09-25T15:33:45.200Z,13.30
2018-09-25T15:36:19.287Z,13.30
2018-09-25T15:38:53.402Z,13.20
2018-09-25T15:41:27.662Z,13.20
2018-09-25T15:44:01.727Z,13.10
2018-09-25T15:46:35.948Z,13.10
2018-09-25T15:49:10.177Z,13.10
2018-09-25T15:51:44.379Z,13.10
2018-09-25T15:54:18.454Z,13.10
2018-09-25T15:56:52.711Z,13.10
2018-09-25T15:59:26.777Z,13.10
2018-09-25T16:02:00.888Z,13.00
2018-09-25T16:04:35.148Z,13.00
2018-09-25T16:07:09.357Z,12.90
2018-09-25T16:09:43.458Z,12.90
2018-09-25T16:12:17.579Z,12.80
2018-09-25T16:14:51.630Z,12.80
2018-09-25T16:17:25.916Z,12.70
2018-09-25T16:20:00.074Z,12.70
2018-09-25T16:22:34.243Z,12.60
2018-09-25T16:25:08.444Z,12.50
2018-09-25T16:27:42.849Z,12.40
2018-09-25T16:30:17.051Z,12.30
2018-09-25T16:32:51.217Z,12.20
2018-09-25T16:35:25.467Z,12.10
2018-09-25T16:37:59.753Z,12.00
2018-09-25T16:40:33.946Z,12.00
2018-09-25T16:43:08.058Z,11.90
2018-09-25T16:45:42.149Z,11.80
2018-09-25T16:48:16.267Z,11.60
2018-09-25T16:50:50.418Z,11.50
2018-09-25T16:53:24.699Z,11.50
2018-09-25T16:55:58.926Z,11.40
2018-09-25T16:58:33.022Z,11.30
2018-09-25T17:01:07.088Z,11.20
2018-09-25T17:03:41.379Z,11.10
2018-09-25T17:06:15.458Z,11.00
2018-09-25T17:08:49.712Z,10.90
2018-09-25T17:11:23.971Z,10.80
2018-09-25T17:13:58.067Z,10.80
2018-09-25T17:16:32.323Z,10.70
2018-09-25T17:19:06.551Z,10.60
2018-09-25T17:21:40.755Z,10.50
2018-09-25T17:24:14.835Z,10.40
2018-09-25T17:26:48.921Z,10.40
2018-09-25T17:29:23.209Z,10.30
2018-09-25T17:31:57.291Z,10.20
2018-09-25T17:34:31.372Z,10.10
2018-09-25T17:37:05.527Z,10.00
2018-09-25T17:39:39.643Z,10.00
2018-09-25T17:42:13.706Z,9.90
2018-09-25T17:44:47.863Z,9.90
2018-09-25T17:47:22.090Z,9.80
2018-09-25T17:49:56.304Z,9.80
2018-09-25T17:52:30.371Z,9.70
2018-09-25T17:55:04.517Z,9.70
2018-09-25T17:57:38.614Z,9.60
2018-09-25T18:00:12.740Z,9.60
2018-09-25T18:02:47.040Z,9.50
2018-09-25T18:05:21.096Z,9.50
2018-09-25T18:07:55.243Z,9.50
2018-09-25T18:10:29.336Z,9.40
2018-09-25T18:13:03.500Z,9.40
2018-09-25T18:15:37.769Z,9.30
2018-09-25T18:18:11.894Z,9.30
2018-09-25T18:20:45.903Z,9.20
2018-09-25T18:23:20.054Z,9.20
2018-09-25T18:25:54.171Z,9.20
2018-09-25T18:28:28.212Z,9.20
2018-09-25T18:31:02.449Z,9.20
2018-09-25T18:33:36.574Z,9.20
2018-09-25T18:36:10.671Z,9.10
2018-09-25T18:38:44.962Z,9.10
2018-09-25T18:41:19.032Z,9.10
2018-09-25T18:43:53.327Z,9.00
2018-09-25T18:46:27.431Z,9.00
2018-09-25T18:49:01.503Z,9.00
2018-09-25T18:51:35.592Z,9.00
2018-09-25T18:54:09.707Z,9.00
2018-09-25T18:56:43.768Z,8.90
2018-09-25T18:59:17.817Z,8.90
2018-09-25T19:01:51.950Z,8.90
2018-09-25T19:04:26.059Z,8.90
2018-09-25T19:07:00.152Z,8.90
2018-09-25T19:09:34.324Z,8.90
2018-09-25T19:12:08.435Z,8.80
2018-09-25T19:14:42.587Z,8.80
2018-09-25T19:17:16.866Z,8.80
2018-09-25T19:19:50.997Z,8.80
2018-09-25T19:22:25.099Z,8.80
2018-09-25T19:24:59.403Z,8.80
2018-09-25T19:27:33.577Z,8.80
2018-09-25T19:30:07.547Z,8.80
2018-09-25T19:32:41.780Z,8.80
2018-09-25T19:35:15.874Z,8.80
2018-09-25T19:37:50.040Z,8.80
2018-09-25T19:40:24.117Z,8.80
2018-09-25T19:42:58.339Z,8.70
2018-09-25T19:45:32.543Z,8.70
2018-09-25T19:48:06.633Z,8.80
2018-09-25T19:50:40.711Z,8.80
2018-09-25T19:53:15.059Z,8.70
2018-09-25T19:55:49.319Z,8.70
2018-09-25T19:58:23.462Z,8.70
2018-09-25T20:00:57.551Z,8.70
2018-09-25T20:03:31.618Z,8.70
2018-09-25T20:06:05.775Z,8.70
2018-09-25T20:08:40.003Z,8.70
2018-09-25T20:11:14.236Z,8.70
2018-09-25T20:13:48.459Z,8.70
2018-09-25T20:16:22.743Z,8.70
2018-09-25T20:18:56.847Z,8.60
2018-09-25T20:21:30.972Z,8.70
2018-09-25T20:24:05.207Z,8.60
2018-09-25T20:26:39.372Z,8.60
2018-09-25T20:29:13.646Z,8.60
2018-09-25T20:31:47.704Z,8.50
2018-09-25T20:34:21.962Z,8.50
2018-09-25T20:36:56.244Z,8.50
2018-09-25T20:39:30.334Z,8.40
2018-09-25T20:42:04.427Z,8.40
2018-09-25T20:44:38.524Z,8.40
2018-09-25T20:47:12.596Z,8.40
2018-09-25T20:49:46.651Z,8.40
2018-09-25T20:52:20.798Z,8.40
2018-09-25T20:54:55.052Z,8.30
2018-09-25T20:57:29.148Z,8.30
2018-09-25T21:00:03.411Z,8.20
2018-09-25T21:02:37.607Z,8.20
2018-09-25T21:05:11.759Z,8.20
2018-09-25T21:07:45.916Z,8.10
2018-09-25T21:10:19.964Z,8.10
2018-09-25T21:12:54.141Z,8.10
2018-09-25T21:15:28.248Z,8.10
2018-09-25T21:18:02.357Z,8.10
2018-09-25T21:20:36.575Z,8.20
2018-09-25T21:23:10.668Z,8.20
2018-09-25T21:25:44.915Z,8.30
2018-09-25T21:28:19.115Z,8.30
2018-09-25T21:30:53.283Z,8.40
2018-09-25T21:33:27.551Z,8.40
2018-09-25T21:36:01.667Z,8.50
2018-09-25T21:38:35.869Z,8.50
2018-09-25T21:41:09.959Z,8.60
2018-09-25T21:43:44.030Z,8.60
2018-09-25T21:46:18.103Z,8.70
2018-09-25T21:48:52.383Z,8.70
2018-09-25T21:51:26.691Z,8.70
2018-09-25T21:54:00.734Z,8.70
2018-09-25T21:56:34.839Z,8.70
2018-09-25T21:59:08.894Z,8.70
2018-09-25T22:01:42.992Z,8.70
2018-09-25T22:04:17.120Z,8.70
2018-09-25T22:06:51.344Z,8.70
2018-09-25T22:09:25.420Z,8.70
2018-09-25T22:11:59.486Z,8.60
2018-09-25T22:14:33.619Z,8.70
2018-09-25T22:17:07.752Z,8.70
2018-09-25T22:19:41.743Z,8.70
2018-09-25T22:22:16.030Z,8.70
2018-09-25T22:24:50.284Z,8.70
2018-09-25T22:27:24.343Z,8.70
2018-09-25T22:29:58.442Z,8.70
2018-09-25T22:32:32.519Z,8.70
2018-09-25T22:35:06.591Z,8.70
2018-09-25T22:37:40.750Z,8.70
2018-09-25T22:40:14.879Z,8.70
2018-09-25T22:42:48.955Z,8.70
2018-09-25T22:45:23.227Z,8.70
2018-09-25T22:47:57.412Z,8.60
2018-09-25T22:50:31.480Z,8.60
2018-09-25T22:53:05.634Z,8.50
2018-09-25T22:55:39.806Z,8.40
2018-09-25T22:58:13.999Z,8.40
2018-09-25T23:00:48.201Z,8.40
2018-09-25T23:03:22.450Z,8.50
2018-09-25T23:05:56.723Z,8.50
2018-09-25T23:08:30.911Z,8.50
2018-09-25T23:11:05.148Z,8.40
2018-09-25T23:13:39.296Z,8.30
2018-09-25T23:16:13.483Z,8.20
2018-09-25T23:18:47.566Z,8.10
2018-09-25T23:21:21.811Z,8.10
2018-09-25T23:23:56.055Z,8.10
2018-09-25T23:26:30.218Z,8.10
2018-09-25T23:29:04.327Z,8.10
2018-09-25T23:31:38.575Z,8.10
2018-09-25T23:34:12.579Z,8.00
2018-09-25T23:36:46.702Z,8.00
2018-09-25T23:39:19.591Z,8.00
2018-09-25T23:42:23.847Z,8.00
2018-09-25T23:44:59.826Z,8.10
2018-09-25T23:47:33.191Z,8.10
2018-09-25T23:50:05.196Z,8.10
2018-09-25T23:52:56.475Z,8.10
2018-09-25T23:55:35.606Z,8.10
2018-09-25T23:58:06.828Z,8.10
